createdAt,value
2022-08-05T00:02:11.551Z,100336.65
2022-08-05T00:04:40.287Z,100335.27
2022-08-05T00:07:21.720Z,100334.59
2022-08-05T00:09:54.585Z,100330.63
2022-08-05T00:12:22.200Z,100328.23
2022-08-05T00:14:51.672Z,100327.02
2022-08-05T00:17:19.439Z,100328.10
2022-08-05T00:20:02.239Z,100329.56
2022-08-05T00:22:31.015Z,100329.45
2022-08-05T00:24:58.457Z,100329.16
2022-08-05T00:27:28.370Z,100329.39
2022-08-05T00:30:03.384Z,100328.85
2022-08-05T00:32:30.465Z,100322.38
2022-08-05T00:35:06.881Z,100321.60
2022-08-05T00:37:51.376Z,100320.84
2022-08-05T00:40:28.485Z,100317.09
2022-08-05T00:42:58.351Z,100313.23
2022-08-05T00:45:37.918Z,100310.02
2022-08-05T00:48:09.187Z,100307.21
2022-08-05T00:50:38.064Z,100309.66
2022-08-05T00:53:09.507Z,100306.79
2022-08-05T00:55:52.780Z,100304.34
2022-08-05T00:58:19.629Z,100301.39
2022-08-05T01:00:46.750Z,100301.34
2022-08-05T01:03:22.814Z,100300.17
2022-08-05T01:05:54.680Z,100304.96
2022-08-05T01:08:42.111Z,100307.59
2022-08-05T01:11:22.074Z,100311.20
2022-08-05T01:14:15.267Z,100310.91
2022-08-05T01:17:00.436Z,100310.59
2022-08-05T01:20:00.976Z,100311.11
2022-08-05T01:22:32.434Z,100309.80
2022-08-05T01:25:39.890Z,100312.09
2022-08-05T01:28:27.054Z,100312.34
2022-08-05T01:31:08.857Z,100310.52
2022-08-05T01:33:49.260Z,100307.25
2022-08-05T01:36:21.088Z,100306.09
2022-08-05T01:38:55.801Z,100306.55
2022-08-05T01:41:25.696Z,100304.33
2022-08-05T01:43:52.994Z,100304.30
2022-08-05T01:46:42.810Z,100303.52
2022-08-05T01:49:23.181Z,100305.40
2022-08-05T01:51:55.277Z,100307.27
2022-08-05T01:54:25.733Z,100307.63
2022-08-05T01:58:09.432Z,100308.59
2022-08-05T01:59:41.481Z,100308.04
2022-08-05T02:02:14.598Z,100307.59
2022-08-05T02:04:43.647Z,100308.70
2022-08-05T02:07:22.082Z,100308.68
2022-08-05T02:09:51.000Z,100307.56
2022-08-05T02:12:38.790Z,100305.34
2022-08-05T02:15:17.329Z,100305.80
2022-08-05T02:18:27.730Z,100312.64
2022-08-05T02:20:50.590Z,100313.87
2022-08-05T02:23:18.706Z,100313.20
2022-08-05T02:25:49.267Z,100314.09
2022-08-05T02:28:29.195Z,100316.03
2022-08-05T02:31:14.708Z,100317.65
2022-08-05T02:33:48.538Z,100317.47
2022-08-05T02:36:17.170Z,100317.36
2022-08-05T02:38:53.447Z,100318.41
2022-08-05T02:41:22.936Z,100315.89
2022-08-05T02:44:05.932Z,100319.98
2022-08-05T02:46:53.323Z,100320.67
2022-08-05T02:49:24.355Z,100324.27
2022-08-05T02:52:03.917Z,100325.73
2022-08-05T02:54:34.927Z,100327.16
2022-08-05T02:57:10.311Z,100332.50
2022-08-05T02:59:54.513Z,100331.03
2022-08-05T03:02:24.864Z,100330.51
2022-08-05T03:04:55.168Z,100328.04
2022-08-05T03:08:00.612Z,100324.89
2022-08-05T03:10:10.164Z,100323.86
2022-08-05T03:12:38.641Z,100329.81
2022-08-05T03:15:09.329Z,100329.27
2022-08-05T03:17:41.479Z,100329.08
2022-08-05T03:20:10.399Z,100332.72
2022-08-05T03:22:37.497Z,100334.34
2022-08-05T03:25:33.175Z,100339.34
2022-08-05T03:28:00.360Z,100338.57
2022-08-05T03:30:33.751Z,100336.68
2022-08-05T03:33:06.311Z,100334.77
2022-08-05T03:35:40.981Z,100336.32
2022-08-05T03:38:11.198Z,100336.38
2022-08-05T03:40:47.209Z,100339.69
2022-08-05T03:44:08.930Z,100339.20
2022-08-05T03:46:03.488Z,100338.66
2022-08-05T03:48:30.637Z,100336.77
2022-08-05T03:52:48.982Z,100337.42
2022-08-05T03:56:01.369Z,100335.90
2022-08-05T03:56:51.691Z,100336.70
2022-08-05T03:59:24.548Z,100339.98
2022-08-05T04:01:52.359Z,100338.01
2022-08-05T04:04:21.223Z,100338.89
2022-08-05T04:06:51.102Z,100343.45
2022-08-05T04:09:26.113Z,100340.89
2022-08-05T04:11:56.876Z,100341.73
2022-08-05T04:14:30.437Z,100343.52
2022-08-05T04:16:59.713Z,100341.99
2022-08-05T04:19:28.612Z,100343.67
2022-08-05T04:22:08.896Z,100342.34
2022-08-05T04:24:44.189Z,100341.02
2022-08-05T04:27:13.521Z,100345.58
2022-08-05T04:29:41.214Z,100344.34
2022-08-05T04:32:08.647Z,100346.72
2022-08-05T04:34:39.652Z,100342.29
2022-08-05T04:37:11.423Z,100343.32
2022-08-05T04:39:40.100Z,100340.70
2022-08-05T04:42:07.537Z,100338.77
2022-08-05T04:44:35.965Z,100342.17
2022-08-05T04:47:08.975Z,100340.64
2022-08-05T04:50:03.003Z,100341.55
2022-08-05T04:52:27.421Z,100343.81
2022-08-05T04:54:57.364Z,100347.43
2022-08-05T04:57:28.693Z,100344.91
2022-08-05T04:59:58.435Z,100346.98
2022-08-05T05:02:41.997Z,100347.92
2022-08-05T05:05:16.681Z,100348.05
2022-08-05T05:08:01.082Z,100348.19
2022-08-05T05:10:55.779Z,100347.03
2022-08-05T05:13:24.024Z,100344.83
2022-08-05T05:15:57.319Z,100343.04
2022-08-05T05:18:33.079Z,100342.77
2022-08-05T05:21:03.072Z,100342.73
2022-08-05T05:24:02.189Z,100340.23
2022-08-05T05:26:18.749Z,100338.84
2022-08-05T05:28:45.693Z,100337.83
2022-08-05T05:31:13.148Z,100334.45
2022-08-05T05:33:59.696Z,100332.77
2022-08-05T05:36:28.821Z,100333.88
2022-08-05T05:38:57.493Z,100334.56
2022-08-05T05:41:24.687Z,100333.02
2022-08-05T05:43:58.410Z,100327.11
2022-08-05T05:46:27.696Z,100326.69
2022-08-05T05:48:55.054Z,100326.55
2022-08-05T05:51:23.648Z,100326.20
2022-08-05T05:53:57.671Z,100327.16
2022-08-05T05:56:32.452Z,100326.58
2022-08-05T05:59:03.163Z,100326.39
2022-08-05T06:01:37.715Z,100328.41
2022-08-05T06:04:12.188Z,100323.85
2022-08-05T06:06:41.741Z,100325.94
2022-08-05T06:09:09.148Z,100326.20
2022-08-05T06:11:59.589Z,100326.61
2022-08-05T06:14:30.974Z,100328.35
2022-08-05T06:16:58.580Z,100328.17
2022-08-05T06:19:34.844Z,100332.85
2022-08-05T06:22:03.973Z,100331.39
2022-08-05T06:24:32.195Z,100329.03
2022-08-05T06:26:59.768Z,100326.03
2022-08-05T06:29:48.145Z,100329.16
2022-08-05T06:32:24.921Z,100332.55
2022-08-05T06:34:58.378Z,100334.02
2022-08-05T06:37:57.286Z,100331.65
2022-08-05T06:40:18.399Z,100330.65
2022-08-05T06:42:51.631Z,100333.20
2022-08-05T06:45:21.244Z,100332.52
2022-08-05T06:48:36.147Z,100325.02
2022-08-05T06:50:54.415Z,100319.21
2022-08-05T06:53:27.617Z,100312.99
2022-08-05T06:56:00.109Z,100313.14
2022-08-05T06:58:29.959Z,100314.39
2022-08-05T07:01:03.607Z,100317.91
2022-08-05T07:03:32.522Z,100315.64
2022-08-05T07:06:06.293Z,100312.40
2022-08-05T07:08:47.598Z,100311.26
2022-08-05T07:11:22.109Z,100311.55
2022-08-05T07:14:15.504Z,100310.59
2022-08-05T07:17:58.330Z,100315.01
2022-08-05T07:22:28.646Z,100313.66
2022-08-05T07:25:22.064Z,100314.73
2022-08-05T07:27:58.606Z,100313.67
2022-08-05T07:30:32.607Z,100311.14
2022-08-05T07:33:09.491Z,100311.46
2022-08-05T07:36:01.876Z,100312.89
2022-08-05T07:38:34.420Z,100313.17
2022-08-05T07:42:07.063Z,100313.56
2022-08-05T07:43:56.548Z,100312.13
2022-08-05T07:46:26.206Z,100315.76
2022-08-05T07:49:03.591Z,100316.52
2022-08-05T07:51:36.723Z,100311.48
2022-08-05T07:54:09.702Z,100308.84
2022-08-05T07:57:00.202Z,100308.15
2022-08-05T07:59:38.244Z,100309.21
2022-08-05T08:02:15.492Z,100311.81
2022-08-05T08:05:53.680Z,100313.56
2022-08-05T13:49:46.462Z,100209.60
2022-08-05T13:52:29.147Z,100211.13
2022-08-05T13:54:57.289Z,100209.70
2022-08-05T13:57:48.586Z,100207.80
2022-08-05T14:00:15.141Z,100204.25
2022-08-05T14:02:44.585Z,100200.73
2022-08-05T14:05:15.383Z,100199.82
2022-08-05T14:07:59.965Z,100207.67
2022-08-05T14:10:33.236Z,100208.19
2022-08-05T14:13:00.280Z,100206.13
2022-08-05T14:16:07.266Z,100205.10
2022-08-05T14:18:18.372Z,100204.94
2022-08-05T14:20:54.362Z,100203.86
2022-08-05T14:23:25.603Z,100207.97
2022-08-05T14:25:58.246Z,100203.20
2022-08-05T14:28:30.348Z,100199.83
2022-08-05T14:30:58.356Z,100201.66
2022-08-05T14:33:25.613Z,100202.41
2022-08-05T14:35:54.530Z,100200.45
2022-08-05T14:38:31.663Z,100197.63
2022-08-05T14:41:05.845Z,100195.63
2022-08-05T14:43:59.392Z,100199.15
2022-08-05T14:46:28.031Z,100200.03
2022-08-05T14:49:06.569Z,100202.07
2022-08-05T14:51:42.588Z,100200.79
2022-08-05T14:54:28.048Z,100197.63
2022-08-05T14:56:58.921Z,100199.70
2022-08-05T14:59:29.640Z,100199.64
2022-08-05T15:02:03.496Z,100204.59
2022-08-05T15:04:43.404Z,100204.71
2022-08-05T15:07:12.028Z,100208.44
2022-08-05T15:10:01.598Z,100208.31
2022-08-05T15:12:45.671Z,100208.92
2022-08-05T15:15:17.404Z,100210.18
2022-08-05T15:18:05.849Z,100212.56
2022-08-05T15:20:33.071Z,100212.33
2022-08-05T15:23:07.472Z,100208.96
2022-08-05T15:25:41.062Z,100208.35
2022-08-05T15:28:20.250Z,100209.48
2022-08-05T15:30:53.066Z,100206.38
2022-08-05T15:34:05.170Z,100209.45
2022-08-05T15:36:16.874Z,100208.52
2022-08-05T15:38:44.946Z,100210.31
2022-08-05T15:41:23.102Z,100215.92
2022-08-05T15:43:52.366Z,100213.02
2022-08-05T15:46:24.104Z,100214.23
2022-08-05T15:48:58.664Z,100216.79
2022-08-05T15:52:13.742Z,100219.29
2022-08-05T15:54:15.770Z,100223.38
2022-08-05T15:56:43.683Z,100222.06
2022-08-05T15:59:21.774Z,100227.63
2022-08-05T16:01:52.247Z,100228.64
2022-08-05T16:04:25.353Z,100228.65
2022-08-05T16:06:56.166Z,100225.14
2022-08-05T16:09:24.446Z,100223.34
2022-08-05T16:11:53.200Z,100219.80
2022-08-05T16:14:24.710Z,100219.15
2022-08-05T16:16:51.760Z,100216.11
2022-08-05T16:20:02.932Z,100216.23
2022-08-05T16:22:06.692Z,100212.11
2022-08-05T16:24:41.548Z,100212.52
2022-08-05T16:27:18.871Z,100216.02
2022-08-05T16:29:50.151Z,100215.75
2022-08-05T16:32:23.226Z,100214.41
2022-08-05T16:34:55.511Z,100216.59
2022-08-05T16:38:02.549Z,100213.20
2022-08-05T16:40:25.016Z,100211.95
2022-08-05T16:42:56.281Z,100214.25
2022-08-05T16:46:03.965Z,100220.22
2022-08-05T16:48:10.527Z,100220.96
2022-08-05T16:50:37.867Z,100219.51
2022-08-05T16:53:11.923Z,100221.36
2022-08-05T16:55:46.951Z,100229.53
2022-08-05T16:58:14.595Z,100227.64
2022-08-05T17:00:48.177Z,100229.85
2022-08-05T17:03:20.538Z,100234.38
2022-08-05T17:05:53.603Z,100237.84
2022-08-05T17:08:36.072Z,100242.13
2022-08-05T17:11:12.710Z,100250.21
2022-08-05T17:13:45.651Z,100249.93
2022-08-05T17:16:33.145Z,100250.89
2022-08-05T17:19:00.812Z,100255.31
2022-08-05T17:21:35.735Z,100254.70
2022-08-05T17:24:28.183Z,100260.59
2022-08-05T17:26:57.685Z,100258.83
2022-08-05T17:29:33.180Z,100260.36
2022-08-05T17:32:17.193Z,100264.54
2022-08-05T17:34:49.105Z,100265.98
2022-08-05T17:37:40.865Z,100273.91
2022-08-05T17:40:10.100Z,100277.52
2022-08-05T17:42:43.039Z,100279.15
2022-08-05T17:45:20.020Z,100280.22
2022-08-05T17:47:53.394Z,100285.86
2022-08-05T17:50:28.934Z,100289.27
2022-08-05T17:53:02.961Z,100288.09
2022-08-05T17:55:37.548Z,100292.99
2022-08-05T17:58:12.449Z,100294.39
2022-08-05T18:00:45.145Z,100292.95
2022-08-05T18:06:11.512Z,100290.61
2022-08-05T18:08:44.836Z,100291.84
2022-08-05T18:11:23.616Z,100290.95
2022-08-05T18:13:53.467Z,100288.09
2022-08-05T18:16:21.137Z,100291.20
2022-08-05T18:18:50.157Z,100294.02
2022-08-05T18:21:19.900Z,100294.17
2022-08-05T18:23:53.510Z,100292.89
2022-08-05T18:26:27.739Z,100293.63
2022-08-05T18:28:57.488Z,100290.61
2022-08-05T18:31:33.856Z,100290.77
2022-08-05T18:34:06.220Z,100293.45
2022-08-05T18:36:35.529Z,100297.75
2022-08-05T18:39:03.787Z,100297.27
2022-08-05T18:41:55.808Z,100303.66
2022-08-05T18:44:33.311Z,100302.61
2022-08-05T18:47:04.301Z,100302.39
2022-08-05T18:49:57.813Z,100304.66
2022-08-05T18:52:33.559Z,100302.84
2022-08-05T18:55:05.042Z,100302.41
2022-08-05T18:57:49.964Z,100300.20
2022-08-05T19:00:20.374Z,100300.98
2022-08-05T19:02:48.161Z,100300.46
2022-08-05T19:06:05.549Z,100302.04
2022-08-05T19:08:03.026Z,100303.06
2022-08-05T19:10:30.699Z,100302.64
2022-08-05T19:12:58.659Z,100299.80
2022-08-05T19:15:59.020Z,100299.60
2022-08-05T19:18:22.461Z,100299.62
2022-08-05T19:20:52.400Z,100301.14
2022-08-05T19:24:03.671Z,100301.77
2022-08-05T19:26:09.270Z,100306.62
2022-08-05T19:28:42.234Z,100305.70
2022-08-05T19:31:13.262Z,100305.71
2022-08-05T19:33:55.651Z,100304.75
2022-08-05T19:36:25.358Z,100307.55
2022-08-05T19:39:00.537Z,100305.77
2022-08-05T19:42:05.341Z,100303.23
2022-08-05T19:44:16.719Z,100299.43
2022-08-05T19:46:45.500Z,100297.97
2022-08-05T19:49:17.240Z,100296.11
2022-08-05T19:52:05.860Z,100297.21
2022-08-05T19:54:34.307Z,100301.02
2022-08-05T19:57:06.632Z,100301.16
2022-08-05T19:59:56.036Z,100301.81
2022-08-05T20:02:23.570Z,100300.38
2022-08-05T20:04:54.048Z,100300.00
2022-08-05T20:07:45.724Z,100298.64
2022-08-05T20:10:13.507Z,100298.27
2022-08-05T20:12:48.012Z,100295.69
2022-08-05T20:15:48.971Z,100297.91
2022-08-05T20:18:09.737Z,100298.73
2022-08-05T20:20:37.071Z,100300.77
2022-08-05T20:23:05.654Z,100297.01
2022-08-05T20:25:39.736Z,100298.48
2022-08-05T20:28:08.104Z,100292.61
2022-08-05T20:30:40.826Z,100288.63
2022-08-05T20:33:09.002Z,100288.14
2022-08-05T20:35:40.282Z,100285.84
2022-08-05T20:38:20.010Z,100281.98
2022-08-05T20:40:53.804Z,100276.34
2022-08-05T20:43:33.403Z,100272.81
2022-08-05T20:46:10.537Z,100271.71
2022-08-05T20:48:45.371Z,100271.27
2022-08-05T20:51:18.051Z,100270.69
2022-08-05T20:53:56.772Z,100273.46
2022-08-05T20:56:29.695Z,100271.55
2022-08-05T20:59:00.156Z,100269.77
2022-08-05T21:01:39.035Z,100267.27
2022-08-05T21:04:10.847Z,100265.39
2022-08-05T21:06:45.132Z,100259.73
2022-08-05T21:09:14.438Z,100257.55
2022-08-05T21:12:08.990Z,100255.72
2022-08-05T21:14:35.300Z,100258.51
2022-08-05T21:17:06.106Z,100258.95
2022-08-05T21:19:46.442Z,100261.68
2022-08-05T21:22:18.536Z,100259.92
2022-08-05T21:24:51.577Z,100256.24
2022-08-05T21:27:25.027Z,100254.66
2022-08-05T21:29:55.818Z,100253.93
2022-08-05T21:32:27.449Z,100252.84
2022-08-05T21:35:09.032Z,100250.13
2022-08-05T21:37:43.709Z,100244.58
2022-08-05T21:40:14.630Z,100245.08
2022-08-05T21:42:45.302Z,100243.54
2022-08-05T21:45:24.979Z,100246.88
2022-08-05T21:48:06.357Z,100249.60
2022-08-05T21:50:33.657Z,100247.98
2022-08-05T21:53:04.585Z,100246.39
2022-08-05T21:56:01.576Z,100243.48
2022-08-05T21:58:24.860Z,100245.16
2022-08-05T22:00:59.637Z,100246.02
2022-08-05T22:03:52.067Z,100245.61
2022-08-05T22:06:22.449Z,100246.92
2022-08-05T22:08:52.199Z,100244.73
2022-08-05T22:11:35.170Z,100243.27
2022-08-05T22:14:06.569Z,100239.48
2022-08-05T22:16:53.024Z,100240.20
2022-08-05T22:20:03.522Z,100239.49
2022-08-05T22:22:10.969Z,100241.69
2022-08-05T22:24:57.884Z,100241.21
2022-08-05T22:28:08.539Z,100241.30
2022-08-05T22:30:32.450Z,100243.97
2022-08-05T22:33:04.367Z,100243.61
2022-08-05T22:35:48.606Z,100243.24
2022-08-05T22:38:19.722Z,100240.52
2022-08-05T22:40:49.642Z,100240.80
2022-08-05T22:43:37.032Z,100246.61
2022-08-05T22:46:13.501Z,100242.86
2022-08-05T22:48:50.610Z,100248.83
2022-08-05T22:51:22.898Z,100251.23
2022-08-05T22:53:57.029Z,100250.08
2022-08-05T22:56:30.543Z,100252.20
2022-08-05T22:59:04.142Z,100252.83
2022-08-05T23:02:04.857Z,100253.15
2022-08-05T23:04:34.043Z,100249.62
2022-08-05T23:07:01.100Z,100248.30
2022-08-05T23:09:57.251Z,100251.61
2022-08-05T23:12:18.007Z,100248.48
2022-08-05T23:14:45.074Z,100245.41
2022-08-05T23:17:34.105Z,100240.54
2022-08-05T23:20:05.693Z,100237.69
2022-08-05T23:22:37.662Z,100236.58
2022-08-05T23:25:05.531Z,100239.67
2022-08-05T23:27:42.535Z,100238.52
2022-08-05T23:30:21.547Z,100237.23
2022-08-05T23:32:54.342Z,100239.23
2022-08-05T23:35:21.387Z,100238.39
2022-08-05T23:37:48.544Z,100244.80
2022-08-05T23:40:15.557Z,100247.30
2022-08-05T23:42:47.406Z,100247.19
2022-08-05T23:45:20.659Z,100250.16
2022-08-05T23:47:53.616Z,100242.68
2022-08-05T23:50:26.605Z,100239.03
2022-08-05T23:52:55.739Z,100241.64
2022-08-05T23:55:24.657Z,100244.20
2022-08-05T23:57:58.134Z,100246.79
